createdAt,value
2017-09-14T00:01:48.297Z,19.60
2017-09-14T00:04:17.674Z,19.50
2017-09-14T00:06:47.201Z,19.50
2017-09-14T00:09:17.257Z,19.50
2017-09-14T00:11:47.360Z,19.50
2017-09-14T00:14:16.464Z,19.50
2017-09-14T00:16:44.630Z,19.50
2017-09-14T00:19:12.854Z,19.50
2017-09-14T00:21:43.270Z,19.50
2017-09-14T00:24:12.108Z,19.40
2017-09-14T00:26:41.874Z,19.40
2017-09-14T00:29:11.756Z,19.40
2017-09-14T00:31:42.173Z,19.30
2017-09-14T00:34:11.724Z,19.30
2017-09-14T00:36:43.858Z,19.40
2017-09-14T00:39:13.180Z,19.30
2017-09-14T00:41:43.274Z,19.30
2017-09-14T00:44:12.492Z,19.30
2017-09-14T00:46:43.635Z,19.30
2017-09-14T00:49:12.924Z,19.30
2017-09-14T00:51:41.978Z,19.30
2017-09-14T00:54:11.013Z,19.30
2017-09-14T00:56:39.331Z,19.30
2017-09-14T00:59:07.506Z,19.30
2017-09-14T01:01:36.443Z,19.30
2017-09-14T01:04:04.672Z,19.20
2017-09-14T01:06:33.378Z,19.20
2017-09-14T01:09:01.637Z,19.20
2017-09-14T01:11:30.380Z,19.20
2017-09-14T01:13:58.605Z,19.20
2017-09-14T01:16:26.686Z,19.20
2017-09-14T01:18:55.673Z,19.20
2017-09-14T01:21:24.710Z,19.20
2017-09-14T01:23:55.189Z,19.20
2017-09-14T01:26:24.687Z,19.20
2017-09-14T01:28:54.209Z,19.10
2017-09-14T01:31:22.295Z,19.10
2017-09-14T01:33:51.804Z,19.10
2017-09-14T01:36:20.327Z,19.10
2017-09-14T01:38:48.570Z,19.00
2017-09-14T01:41:17.976Z,19.00
2017-09-14T01:43:46.418Z,19.00
2017-09-14T01:46:18.204Z,18.90
2017-09-14T01:48:47.441Z,18.90
2017-09-14T01:51:17.867Z,18.90
2017-09-14T01:53:48.364Z,18.90
2017-09-14T01:56:17.332Z,18.90
2017-09-14T01:58:46.722Z,18.80
2017-09-14T02:01:17.053Z,18.80
2017-09-14T02:03:46.411Z,18.80
2017-09-14T02:06:16.084Z,18.70
2017-09-14T02:08:46.117Z,18.70
2017-09-14T02:11:14.979Z,18.70
2017-09-14T02:13:42.694Z,18.70
2017-09-14T02:16:11.992Z,18.70
2017-09-14T02:18:41.548Z,18.60
2017-09-14T02:21:10.534Z,18.60
2017-09-14T02:23:38.780Z,18.60
2017-09-14T02:26:06.999Z,18.60
2017-09-14T02:28:37.445Z,18.60
2017-09-14T02:31:06.278Z,18.50
2017-09-14T02:33:35.811Z,18.50
2017-09-14T02:36:04.413Z,18.50
2017-09-14T02:38:32.474Z,18.40
2017-09-14T02:41:00.348Z,18.40
2017-09-14T02:43:29.283Z,18.30
2017-09-14T02:45:56.896Z,18.30
2017-09-14T02:48:25.217Z,18.30
2017-09-14T02:50:54.577Z,18.30
2017-09-14T02:53:24.101Z,18.30
2017-09-14T02:55:54.609Z,18.30
2017-09-14T02:58:22.763Z,18.30
2017-09-14T03:00:52.117Z,18.30
2017-09-14T03:03:21.313Z,18.30
2017-09-14T03:05:50.918Z,18.30
2017-09-14T03:08:19.795Z,18.20
2017-09-14T03:10:49.056Z,18.20
2017-09-14T03:13:18.327Z,18.20
2017-09-14T03:15:48.363Z,18.20
2017-09-14T03:18:17.241Z,18.10
2017-09-14T03:20:45.329Z,18.20
2017-09-14T03:23:15.445Z,18.20
2017-09-14T03:25:44.009Z,18.10
2017-09-14T03:28:12.810Z,18.10
2017-09-14T03:30:42.751Z,18.10
2017-09-14T03:33:12.798Z,18.10
2017-09-14T03:35:43.261Z,18.00
2017-09-14T03:38:11.346Z,18.00
2017-09-14T03:40:40.731Z,18.00
2017-09-14T03:43:10.470Z,18.00
2017-09-14T03:45:39.292Z,17.90
2017-09-14T03:48:07.940Z,17.90
2017-09-14T03:50:36.049Z,17.90
2017-09-14T03:53:04.940Z,17.90
2017-09-14T03:55:34.021Z,17.90
2017-09-14T03:58:03.444Z,17.80
2017-09-14T04:00:32.747Z,17.80
2017-09-14T04:03:01.620Z,17.80
2017-09-14T04:05:31.430Z,17.80
2017-09-14T04:08:00.476Z,17.80
2017-09-14T04:10:29.351Z,17.70
2017-09-14T04:12:59.992Z,17.70
2017-09-14T04:15:28.527Z,17.70
2017-09-14T04:17:57.818Z,17.60
2017-09-14T04:20:26.823Z,17.60
2017-09-14T04:22:54.995Z,17.50
2017-09-14T04:25:24.293Z,17.50
2017-09-14T04:27:53.400Z,17.50
2017-09-14T04:30:22.359Z,17.40
2017-09-14T04:32:50.463Z,17.40
2017-09-14T04:35:21.465Z,17.30
2017-09-14T04:37:50.106Z,17.30
2017-09-14T04:40:19.530Z,17.30
2017-09-14T04:42:48.762Z,17.30
2017-09-14T04:45:18.590Z,17.20
2017-09-14T04:47:46.815Z,17.20
2017-09-14T04:50:17.850Z,17.20
2017-09-14T04:52:46.106Z,17.20
2017-09-14T04:55:15.154Z,17.10
2017-09-14T04:57:43.933Z,17.10
2017-09-14T05:00:12.887Z,17.10
2017-09-14T05:02:40.883Z,17.10
2017-09-14T05:05:09.664Z,17.20
2017-09-14T05:07:39.281Z,17.10
2017-09-14T05:10:09.955Z,17.10
2017-09-14T05:12:38.734Z,17.20
2017-09-14T05:15:09.639Z,17.10
2017-09-14T05:17:38.324Z,17.20
2017-09-14T05:20:07.374Z,17.20
2017-09-14T05:22:35.921Z,17.20
2017-09-14T05:25:05.828Z,17.20
2017-09-14T05:27:34.373Z,17.10
2017-09-14T05:30:03.965Z,17.20
2017-09-14T05:32:32.183Z,17.10
2017-09-14T05:35:00.050Z,17.10
2017-09-14T05:37:28.406Z,17.10
2017-09-14T05:39:57.898Z,17.20
2017-09-14T05:42:27.303Z,17.20
2017-09-14T05:44:55.682Z,17.20
2017-09-14T05:47:24.293Z,17.20
2017-09-14T05:49:52.808Z,17.20
2017-09-14T05:52:22.969Z,17.30
2017-09-14T05:54:51.743Z,17.20
2017-09-14T05:57:20.864Z,17.30
2017-09-14T05:59:50.190Z,17.40
2017-09-14T06:02:19.619Z,17.40
2017-09-14T06:04:47.798Z,17.40
2017-09-14T06:07:16.967Z,17.40
2017-09-14T06:09:45.886Z,17.30
2017-09-14T06:12:14.102Z,17.40
2017-09-14T06:14:44.940Z,17.40
2017-09-14T06:17:13.814Z,17.40
2017-09-14T06:19:42.102Z,17.50
2017-09-14T06:22:10.209Z,17.50
2017-09-14T06:24:38.315Z,17.50
2017-09-14T06:27:06.762Z,17.60
2017-09-14T06:29:37.709Z,17.60
2017-09-14T06:32:06.828Z,17.60
2017-09-14T06:34:35.663Z,17.60
2017-09-14T06:37:05.268Z,17.70
2017-09-14T06:39:33.547Z,17.70
2017-09-14T06:42:01.975Z,17.70
2017-09-14T06:44:31.501Z,17.80
2017-09-14T06:46:59.578Z,17.80
2017-09-14T06:49:28.878Z,17.80
2017-09-14T06:51:57.569Z,17.80
2017-09-14T06:54:25.677Z,17.90
2017-09-14T06:56:55.182Z,17.90
2017-09-14T06:59:25.276Z,18.00
2017-09-14T07:01:55.620Z,18.00
2017-09-14T07:04:24.241Z,18.00
2017-09-14T07:06:53.070Z,18.10
2017-09-14T07:09:22.685Z,18.10
2017-09-14T07:11:51.530Z,18.10
2017-09-14T07:14:20.522Z,18.20
2017-09-14T07:16:50.063Z,18.20
2017-09-14T07:19:19.067Z,18.30
2017-09-14T07:21:47.898Z,18.40
2017-09-14T07:24:17.716Z,18.40
2017-09-14T07:26:48.696Z,18.40
2017-09-14T07:29:18.305Z,18.40
2017-09-14T07:31:47.620Z,18.50
2017-09-14T07:34:15.764Z,18.50
2017-09-14T07:36:44.665Z,18.50
2017-09-14T07:39:14.472Z,18.60
2017-09-14T07:41:43.112Z,18.60
2017-09-14T07:44:11.204Z,18.70
2017-09-14T07:46:41.361Z,18.70
2017-09-14T07:49:10.336Z,18.70
2017-09-14T07:51:39.508Z,18.80
2017-09-14T07:54:09.707Z,18.80
2017-09-14T07:56:38.448Z,18.80
2017-09-14T07:59:08.452Z,18.90
2017-09-14T08:01:39.732Z,18.90
2017-09-14T08:04:10.227Z,18.90
2017-09-14T08:06:39.048Z,19.00
2017-09-14T08:09:07.967Z,19.00
2017-09-14T08:11:37.049Z,19.10
2017-09-14T08:14:06.760Z,19.10
2017-09-14T08:16:35.707Z,19.20
2017-09-14T08:19:05.483Z,19.20
2017-09-14T08:21:34.764Z,19.20
2017-09-14T08:24:04.165Z,19.30
2017-09-14T08:26:32.628Z,19.30
2017-09-14T08:29:01.288Z,19.40
2017-09-14T08:31:30.141Z,19.50
2017-09-14T08:33:58.624Z,19.50
2017-09-14T08:36:27.480Z,19.50
2017-09-14T08:38:55.250Z,19.60
2017-09-14T08:41:23.731Z,19.60
2017-09-14T08:43:52.778Z,19.60
2017-09-14T08:46:22.645Z,19.70
2017-09-14T08:48:51.022Z,19.70
2017-09-14T08:51:19.703Z,19.60
2017-09-14T08:53:49.102Z,19.60
2017-09-14T08:56:18.396Z,19.70
2017-09-14T08:58:46.768Z,19.70
2017-09-14T09:01:16.909Z,19.80
2017-09-14T09:03:44.985Z,19.80
2017-09-14T09:06:14.996Z,19.80
2017-09-14T09:08:44.441Z,19.90
2017-09-14T09:11:14.884Z,20.10
2017-09-14T09:13:44.203Z,20.10
2017-09-14T09:16:13.541Z,20.10
2017-09-14T09:18:42.192Z,20.20
2017-09-14T09:21:11.744Z,20.30
2017-09-14T09:23:39.921Z,20.40
2017-09-14T09:26:08.024Z,20.40
2017-09-14T09:28:37.795Z,20.50
2017-09-14T09:31:05.926Z,20.60
2017-09-14T09:33:36.370Z,20.80
2017-09-14T09:36:04.553Z,20.80
2017-09-14T09:38:33.412Z,20.90
2017-09-14T09:41:01.714Z,20.90
2017-09-14T09:43:31.536Z,21.00
2017-09-14T09:45:59.735Z,21.10
2017-09-14T09:48:30.029Z,21.20
2017-09-14T09:50:58.125Z,21.20
2017-09-14T09:53:26.997Z,21.30
2017-09-14T09:55:56.095Z,21.40
2017-09-14T09:58:24.980Z,21.50
2017-09-14T10:00:53.547Z,21.50
2017-09-14T10:03:21.890Z,21.60
2017-09-14T10:05:51.130Z,21.70
2017-09-14T10:08:21.212Z,21.70
2017-09-14T10:10:50.688Z,21.80
2017-09-14T10:13:19.243Z,21.90
2017-09-14T10:15:49.574Z,21.90
2017-09-14T10:18:18.965Z,22.00
2017-09-14T10:20:48.276Z,22.00
2017-09-14T10:23:17.196Z,22.10
2017-09-14T10:25:45.193Z,22.10
2017-09-14T10:28:13.606Z,22.20
2017-09-14T10:30:44.576Z,22.30
2017-09-14T10:33:13.501Z,22.30
2017-09-14T10:35:43.528Z,22.40
2017-09-14T10:38:12.643Z,22.40
2017-09-14T10:40:42.070Z,22.40
2017-09-14T10:43:10.890Z,22.50
2017-09-14T10:45:39.908Z,22.50
2017-09-14T10:48:08.943Z,22.60
2017-09-14T10:50:38.452Z,22.60
2017-09-14T10:53:07.784Z,22.60
2017-09-14T10:55:37.108Z,22.60
2017-09-14T10:58:10.314Z,22.70
2017-09-14T11:00:38.956Z,22.80
2017-09-14T11:03:07.597Z,22.90
2017-09-14T11:05:35.885Z,22.90
2017-09-14T11:08:04.630Z,23.00
2017-09-14T11:10:34.793Z,23.10
2017-09-14T11:13:04.743Z,23.20
2017-09-14T11:15:34.327Z,23.30
2017-09-14T11:18:05.036Z,23.30
2017-09-14T11:20:35.822Z,23.40
2017-09-14T11:32:44.904Z,23.40
2017-09-14T11:48:08.097Z,23.60
2017-09-14T11:50:36.858Z,23.90
2017-09-14T11:53:06.788Z,23.90
2017-09-14T11:55:36.865Z,24.00
2017-09-14T11:58:05.948Z,24.10
2017-09-14T12:00:34.915Z,24.20
2017-09-14T12:03:05.807Z,24.20
2017-09-14T12:15:16.175Z,24.30
2017-09-14T12:17:47.782Z,24.70
2017-09-14T12:22:51.256Z,24.80
2017-09-14T12:28:33.227Z,24.90
2017-09-14T12:31:02.917Z,25.00
2017-09-14T12:33:33.246Z,25.10
2017-09-14T12:36:04.949Z,25.20
2017-09-14T12:38:36.059Z,25.20
2017-09-14T12:41:12.317Z,25.40
2017-09-14T12:43:44.266Z,25.40
2017-09-14T12:46:14.712Z,25.50
2017-09-14T12:48:45.380Z,25.50
2017-09-14T12:51:18.637Z,25.60
2017-09-14T12:53:48.266Z,25.70
2017-09-14T12:56:16.458Z,25.80
2017-09-14T12:58:45.746Z,25.80
2017-09-14T13:01:15.637Z,25.80
2017-09-14T13:03:44.779Z,25.80
2017-09-14T13:06:14.328Z,25.90
2017-09-14T13:08:42.921Z,25.90
2017-09-14T13:11:14.239Z,26.00
2017-09-14T13:13:43.915Z,26.00
2017-09-14T13:16:12.445Z,26.00
2017-09-14T13:18:42.664Z,26.00
2017-09-14T13:21:11.348Z,26.00
2017-09-14T13:23:40.459Z,26.00
2017-09-14T13:26:14.924Z,26.00
2017-09-14T13:28:44.132Z,26.00
2017-09-14T13:31:14.284Z,26.10
2017-09-14T13:33:46.888Z,26.10
2017-09-14T13:36:18.386Z,26.00
2017-09-14T13:38:49.684Z,26.00
2017-09-14T13:41:20.266Z,26.00
2017-09-14T13:43:52.214Z,26.00
2017-09-14T13:46:23.688Z,26.00
2017-09-14T13:48:55.470Z,26.00
2017-09-14T14:01:05.153Z,26.10
2017-09-14T14:03:39.883Z,25.80
2017-09-14T14:06:09.347Z,25.70
2017-09-14T14:08:39.353Z,25.80
2017-09-14T14:11:09.498Z,25.70
2017-09-14T14:13:42.941Z,25.60
2017-09-14T14:16:14.995Z,25.50
2017-09-14T14:18:43.478Z,25.50
2017-09-14T14:21:11.555Z,25.30
2017-09-14T14:23:41.415Z,24.90
2017-09-14T14:26:10.278Z,24.20
2017-09-14T14:28:38.926Z,23.50
2017-09-14T14:31:08.605Z,23.00
2017-09-14T14:33:39.741Z,22.60
2017-09-14T14:36:10.078Z,22.30
2017-09-14T14:38:40.243Z,22.10
2017-09-14T14:41:10.162Z,22.00
2017-09-14T14:43:39.149Z,21.80
2017-09-14T14:46:06.819Z,21.70
2017-09-14T14:48:36.636Z,21.50
2017-09-14T14:51:05.912Z,21.40
2017-09-14T14:53:36.175Z,21.30
2017-09-14T14:56:05.196Z,21.20
2017-09-14T15:08:24.162Z,21.20
2017-09-14T15:10:53.255Z,20.30
2017-09-14T15:13:22.089Z,20.00
2017-09-14T15:15:51.697Z,19.90
2017-09-14T15:18:20.150Z,19.90
2017-09-14T15:20:48.613Z,19.80
2017-09-14T15:23:17.817Z,19.70
2017-09-14T15:25:47.288Z,19.60
2017-09-14T15:28:16.343Z,19.50
2017-09-14T15:30:45.421Z,19.40
2017-09-14T15:33:13.678Z,19.40
2017-09-14T15:35:42.603Z,19.30
2017-09-14T15:38:11.436Z,19.00
2017-09-14T15:40:46.599Z,18.50
2017-09-14T15:43:20.375Z,18.50
2017-09-14T15:45:49.718Z,18.40
2017-09-14T15:48:23.972Z,18.20
2017-09-14T15:50:58.221Z,18.10
2017-09-14T15:53:26.337Z,18.20
2017-09-14T15:55:55.694Z,18.10
2017-09-14T15:58:24.832Z,17.90
2017-09-14T16:00:54.518Z,17.80
2017-09-14T16:03:24.211Z,17.70
2017-09-14T16:05:52.631Z,17.40
2017-09-14T16:08:21.927Z,17.40
2017-09-14T16:10:52.169Z,17.20
2017-09-14T16:13:20.986Z,17.20
2017-09-14T16:15:50.591Z,17.00
2017-09-14T16:18:19.991Z,17.00
2017-09-14T16:20:50.742Z,16.80
2017-09-14T16:23:19.317Z,16.80
2017-09-14T16:25:48.826Z,16.60
2017-09-14T16:28:20.176Z,16.60
2017-09-14T16:30:49.694Z,16.60
2017-09-14T16:33:19.006Z,16.50
2017-09-14T16:35:47.651Z,16.40
2017-09-14T16:38:16.751Z,16.30
2017-09-14T16:40:45.647Z,16.30
2017-09-14T16:43:13.900Z,16.20
2017-09-14T16:45:42.640Z,16.10
2017-09-14T16:48:20.907Z,15.90
2017-09-14T16:50:49.812Z,15.80
2017-09-14T16:53:20.085Z,15.80
2017-09-14T16:55:48.819Z,15.80
2017-09-14T16:58:18.590Z,15.80
2017-09-14T17:00:48.335Z,15.80
2017-09-14T17:03:16.530Z,15.90
2017-09-14T17:05:44.820Z,15.80
2017-09-14T17:08:15.019Z,15.80
2017-09-14T17:20:24.223Z,15.80
2017-09-14T17:22:56.982Z,15.50
2017-09-14T17:25:29.525Z,15.40
2017-09-14T17:27:58.526Z,15.40
2017-09-14T17:30:26.940Z,15.30
2017-09-14T17:32:56.985Z,15.40
2017-09-14T17:35:25.097Z,15.40
2017-09-14T17:37:55.796Z,15.40
2017-09-14T17:40:28.952Z,15.10
2017-09-14T17:42:59.470Z,15.10
2017-09-14T17:45:29.080Z,15.00
2017-09-14T17:47:58.135Z,14.90
2017-09-14T17:50:27.181Z,15.00
2017-09-14T17:52:55.985Z,15.00
2017-09-14T17:55:25.517Z,15.10
2017-09-14T17:57:54.734Z,15.00
2017-09-14T18:00:25.851Z,15.20
2017-09-14T18:02:54.064Z,15.20
2017-09-14T18:05:24.629Z,15.30
2017-09-14T18:07:53.852Z,15.30
2017-09-14T18:10:21.907Z,15.30
2017-09-14T18:12:51.461Z,15.20
2017-09-14T18:15:19.792Z,15.30
2017-09-14T18:17:49.590Z,15.40
2017-09-14T18:20:21.253Z,15.40
2017-09-14T18:22:53.280Z,15.40
2017-09-14T18:25:23.952Z,15.40
2017-09-14T18:27:51.763Z,15.40
2017-09-14T18:30:23.345Z,15.40
2017-09-14T18:32:51.584Z,15.40
2017-09-14T18:35:20.394Z,15.50
2017-09-14T18:37:50.441Z,15.40
2017-09-14T18:40:19.824Z,15.20
2017-09-14T18:42:49.667Z,15.30
2017-09-14T18:45:19.038Z,15.20
2017-09-14T18:47:47.229Z,15.20
2017-09-14T18:50:17.143Z,15.20
2017-09-14T18:52:47.218Z,15.30
2017-09-14T18:55:15.658Z,15.20
2017-09-14T18:57:44.499Z,15.30
2017-09-14T19:00:13.081Z,15.30
2017-09-14T19:02:41.673Z,15.30
2017-09-14T19:05:11.378Z,15.30
2017-09-14T19:07:39.531Z,15.40
2017-09-14T19:10:10.399Z,15.40
2017-09-14T19:12:40.052Z,15.30
2017-09-14T19:15:10.304Z,15.40
2017-09-14T19:17:39.397Z,15.40
2017-09-14T19:20:07.964Z,15.40
2017-09-14T19:22:36.113Z,15.30
2017-09-14T19:25:06.957Z,15.40
2017-09-14T19:27:36.290Z,15.40
2017-09-14T19:30:05.607Z,15.30
2017-09-14T19:32:34.274Z,15.30
2017-09-14T19:35:02.568Z,15.30
2017-09-14T19:37:32.079Z,15.30
2017-09-14T19:40:00.547Z,15.20
2017-09-14T19:42:29.176Z,15.30
2017-09-14T19:44:57.164Z,15.30
2017-09-14T19:47:25.373Z,15.20
2017-09-14T19:49:55.016Z,15.20
2017-09-14T19:52:23.915Z,15.20
2017-09-14T19:54:52.835Z,15.20
2017-09-14T19:57:21.756Z,15.10
2017-09-14T19:59:51.751Z,15.10
2017-09-14T20:02:20.951Z,15.10
2017-09-14T20:04:50.555Z,15.20
2017-09-14T20:07:20.608Z,15.20
2017-09-14T20:09:51.067Z,15.20
2017-09-14T20:21:59.753Z,15.20
2017-09-14T20:24:29.261Z,14.90
2017-09-14T20:26:58.858Z,15.00
2017-09-14T20:29:27.867Z,15.00
2017-09-14T20:31:57.576Z,15.00
2017-09-14T20:34:26.044Z,15.00
2017-09-14T20:36:55.122Z,15.10
2017-09-14T20:39:23.886Z,15.10
2017-09-14T20:41:55.580Z,15.00
2017-09-14T20:44:26.492Z,15.00
2017-09-14T20:46:56.317Z,15.10
2017-09-14T20:49:25.042Z,15.10
2017-09-14T20:51:54.804Z,15.10
2017-09-14T20:54:24.285Z,15.10
2017-09-14T20:56:53.427Z,15.10
2017-09-14T20:59:24.029Z,15.10
2017-09-14T21:01:52.531Z,15.00
2017-09-14T21:04:20.892Z,14.90
2017-09-14T21:06:50.986Z,14.90
2017-09-14T21:09:24.784Z,15.00
2017-09-14T21:11:53.737Z,15.10
2017-09-14T21:14:24.594Z,15.10
2017-09-14T21:16:53.478Z,15.10
2017-09-14T21:19:21.508Z,15.10
2017-09-14T21:21:49.524Z,15.10
2017-09-14T21:24:18.584Z,15.10
2017-09-14T21:26:47.340Z,15.10
2017-09-14T21:29:16.619Z,15.10
2017-09-14T21:31:46.378Z,15.10
2017-09-14T21:34:15.161Z,15.10
2017-09-14T21:36:43.992Z,15.20
2017-09-14T21:39:13.406Z,15.20
2017-09-14T21:41:42.259Z,15.10
2017-09-14T21:44:10.883Z,15.10
2017-09-14T21:46:40.743Z,15.30
2017-09-14T21:49:10.878Z,15.20
2017-09-14T21:51:40.328Z,15.30
2017-09-14T21:54:10.564Z,15.30
2017-09-14T21:56:40.863Z,15.30
2017-09-14T21:59:09.702Z,15.30
2017-09-14T22:01:38.484Z,15.30
2017-09-14T22:04:08.073Z,15.40
2017-09-14T22:06:36.727Z,15.40
2017-09-14T22:09:06.887Z,15.40
2017-09-14T22:11:36.453Z,15.40
2017-09-14T22:14:06.558Z,15.40
2017-09-14T22:16:36.163Z,15.30
2017-09-14T22:19:04.522Z,15.30
2017-09-14T22:21:33.354Z,15.30
2017-09-14T22:24:03.030Z,15.30
2017-09-14T22:26:31.013Z,15.20
2017-09-14T22:28:58.642Z,15.30
2017-09-14T22:31:28.252Z,15.20
2017-09-14T22:33:56.779Z,15.20
2017-09-14T22:36:25.803Z,15.30
2017-09-14T22:38:55.292Z,15.30
2017-09-14T22:41:23.821Z,15.20
2017-09-14T22:43:52.456Z,15.20
2017-09-14T22:46:21.931Z,15.20
2017-09-14T22:48:50.592Z,15.30
2017-09-14T22:51:19.579Z,15.20
2017-09-14T22:53:48.053Z,15.20
2017-09-14T22:56:17.048Z,15.20
2017-09-14T22:58:47.285Z,15.10
2017-09-14T23:01:15.605Z,15.10
2017-09-14T23:03:43.884Z,15.10
2017-09-14T23:06:12.075Z,15.20
2017-09-14T23:08:41.787Z,15.20
2017-09-14T23:11:12.029Z,15.10
2017-09-14T23:13:41.777Z,15.10
2017-09-14T23:16:11.100Z,15.10
2017-09-14T23:18:40.282Z,15.10
2017-09-14T23:21:09.216Z,15.10
2017-09-14T23:23:38.623Z,15.10
2017-09-14T23:26:08.769Z,15.10
2017-09-14T23:28:38.116Z,15.00
2017-09-14T23:31:06.361Z,15.10
2017-09-14T23:33:35.942Z,15.00
2017-09-14T23:36:04.611Z,15.00
2017-09-14T23:38:32.700Z,15.10
2017-09-14T23:41:01.921Z,15.10
2017-09-14T23:43:30.556Z,15.10
2017-09-14T23:46:01.948Z,15.10
2017-09-14T23:48:31.380Z,15.10
2017-09-14T23:51:00.219Z,15.10
2017-09-14T23:53:29.637Z,15.10
2017-09-14T23:55:58.954Z,15.20
2017-09-14T23:58:27.110Z,15.20
